createdAt,value
2022-10-10T00:01:21.163Z,3.40
2022-10-10T00:03:49.651Z,2.07
2022-10-10T00:06:17.991Z,4.13
2022-10-10T00:08:47.125Z,2.03
2022-10-10T00:11:18.940Z,3.43
2022-10-10T00:13:47.637Z,4.63
2022-10-10T00:16:16.340Z,6.60
2022-10-10T00:18:44.541Z,5.37
2022-10-10T00:21:12.790Z,3.23
2022-10-10T00:23:40.837Z,1.87
2022-10-10T00:26:09.824Z,4.50
2022-10-10T00:28:40.482Z,2.43
2022-10-10T00:31:09.379Z,7.00
2022-10-10T00:33:38.722Z,3.13
2022-10-10T00:36:08.183Z,2.40
2022-10-10T00:38:36.542Z,7.70
2022-10-10T00:41:05.114Z,1.90
2022-10-10T00:43:34.146Z,1.80
2022-10-10T00:46:03.905Z,6.77
2022-10-10T00:48:36.096Z,2.30
2022-10-10T00:51:09.504Z,3.37
2022-10-10T00:53:41.036Z,17.17
2022-10-10T00:56:10.860Z,5.00
2022-10-10T00:58:42.768Z,3.40
2022-10-10T01:01:12.437Z,11.63
2022-10-10T01:03:40.725Z,3.37
2022-10-10T01:06:09.186Z,1.80
2022-10-10T01:08:37.807Z,1.97
2022-10-10T01:11:22.433Z,5.90
2022-10-10T01:14:00.775Z,2.40
2022-10-10T01:16:37.543Z,5.43
2022-10-10T01:19:24.015Z,2.63
2022-10-10T01:22:10.318Z,2.83
2022-10-10T01:24:56.825Z,2.30
2022-10-10T01:27:32.058Z,2.03
2022-10-10T01:30:06.683Z,4.97
2022-10-10T01:32:40.827Z,12.20
2022-10-10T01:35:29.864Z,9.40
2022-10-10T01:38:12.967Z,4.10
2022-10-10T01:40:49.998Z,1.77
2022-10-10T01:43:19.125Z,5.23
2022-10-10T01:45:51.768Z,7.80
2022-10-10T01:48:24.345Z,2.50
2022-10-10T01:51:19.437Z,3.77
2022-10-10T01:53:58.363Z,1.73
2022-10-10T01:56:36.377Z,2.30
2022-10-10T01:59:25.176Z,2.27
2022-10-10T02:01:59.293Z,3.67
2022-10-10T02:04:36.116Z,1.97
2022-10-10T02:07:11.612Z,5.80
2022-10-10T02:09:43.266Z,1.93
2022-10-10T02:12:14.106Z,4.30
2022-10-10T02:14:47.681Z,2.90
2022-10-10T02:17:18.419Z,8.00
2022-10-10T02:19:52.598Z,13.30
2022-10-10T02:22:22.201Z,2.77
2022-10-10T02:24:50.563Z,3.13
2022-10-10T02:27:25.348Z,2.97
2022-10-10T02:29:55.103Z,2.27
2022-10-10T02:32:31.297Z,6.80
2022-10-10T02:35:05.080Z,3.00
2022-10-10T02:37:33.873Z,3.13
2022-10-10T02:40:06.394Z,2.40
2022-10-10T02:42:35.752Z,5.03
2022-10-10T02:45:05.080Z,2.10
2022-10-10T02:47:34.398Z,3.60
2022-10-10T02:50:02.347Z,4.23
2022-10-10T02:52:30.456Z,3.80
2022-10-10T02:54:58.545Z,2.30
2022-10-10T02:57:26.479Z,3.00
2022-10-10T02:59:54.430Z,10.23
2022-10-10T03:02:22.568Z,2.10
2022-10-10T03:04:51.947Z,3.70
2022-10-10T03:07:19.922Z,8.73
2022-10-10T03:09:47.905Z,2.00
2022-10-10T03:12:16.099Z,3.80
2022-10-10T03:14:44.068Z,2.10
2022-10-10T03:17:12.293Z,1.90
2022-10-10T03:19:40.300Z,2.53
2022-10-10T03:22:10.899Z,5.80
2022-10-10T03:24:38.831Z,2.20
2022-10-10T03:27:06.845Z,2.20
2022-10-10T03:29:34.982Z,3.50
2022-10-10T03:32:03.014Z,3.33
2022-10-10T03:34:33.202Z,7.50
2022-10-10T03:37:01.155Z,8.43
2022-10-10T03:39:30.721Z,7.60
2022-10-10T03:41:58.707Z,6.43
2022-10-10T03:44:26.747Z,6.10
2022-10-10T03:46:54.766Z,3.20
2022-10-10T03:49:22.902Z,7.13
2022-10-10T03:51:50.907Z,10.27
2022-10-10T03:54:18.895Z,3.70
2022-10-10T03:56:48.274Z,3.27
2022-10-10T03:59:16.283Z,3.53
2022-10-10T04:01:44.230Z,4.77
2022-10-10T04:04:12.301Z,2.57
2022-10-10T04:06:40.258Z,4.27
2022-10-10T04:09:10.975Z,2.90
2022-10-10T04:11:40.752Z,2.60
2022-10-10T04:14:10.080Z,5.73
2022-10-10T04:16:38.180Z,5.77
2022-10-10T04:19:06.132Z,5.40
2022-10-10T04:21:34.088Z,2.77
2022-10-10T04:24:02.048Z,2.47
2022-10-10T04:26:30.004Z,3.40
2022-10-10T04:28:57.983Z,2.53
2022-10-10T04:31:27.336Z,1.90
2022-10-10T04:33:55.302Z,5.00
2022-10-10T04:36:23.395Z,3.20
2022-10-10T04:38:51.381Z,2.23
2022-10-10T04:41:19.399Z,2.23
2022-10-10T04:43:47.360Z,3.60
2022-10-10T04:46:15.340Z,10.33
2022-10-10T04:48:44.686Z,5.23
2022-10-10T04:51:12.878Z,3.23
2022-10-10T04:53:40.786Z,8.07
2022-10-10T04:56:08.783Z,6.60
2022-10-10T04:58:36.829Z,3.43
2022-10-10T05:01:05.153Z,3.33
2022-10-10T05:03:33.182Z,1.77
2022-10-10T05:06:02.497Z,2.40
2022-10-10T05:08:30.524Z,2.63
2022-10-10T05:10:58.533Z,2.10
2022-10-10T05:13:26.479Z,2.50
2022-10-10T05:15:54.634Z,2.30
2022-10-10T05:18:26.542Z,14.13
2022-10-10T05:20:54.540Z,3.17
2022-10-10T05:23:24.025Z,2.47
2022-10-10T05:25:52.738Z,3.10
2022-10-10T05:28:20.914Z,2.50
2022-10-10T05:30:48.883Z,4.77
2022-10-10T05:33:16.885Z,3.80
2022-10-10T05:35:44.888Z,9.63
2022-10-10T05:38:12.864Z,3.07
2022-10-10T05:40:43.272Z,3.23
2022-10-10T05:43:11.332Z,2.53
2022-10-10T05:45:39.279Z,3.03
2022-10-10T05:48:07.234Z,2.70
2022-10-10T05:50:39.309Z,7.43
2022-10-10T05:53:07.808Z,1.80
2022-10-10T05:55:36.624Z,6.03
2022-10-10T05:58:06.875Z,6.43
2022-10-10T06:00:36.462Z,2.63
2022-10-10T06:03:04.795Z,2.90
2022-10-10T06:05:32.771Z,3.20
2022-10-10T06:08:07.941Z,3.23
2022-10-10T06:10:41.299Z,4.10
2022-10-10T06:13:11.665Z,2.07
2022-10-10T06:15:39.760Z,2.03
2022-10-10T06:18:08.668Z,2.20
2022-10-10T06:20:37.133Z,4.73
2022-10-10T06:23:05.964Z,3.57
2022-10-10T06:25:40.521Z,5.07
2022-10-10T06:28:11.616Z,3.70
2022-10-10T06:30:43.778Z,6.63
2022-10-10T06:33:13.407Z,4.57
2022-10-10T06:35:43.593Z,9.40
2022-10-10T06:38:12.251Z,11.83
2022-10-10T06:40:41.035Z,4.50
2022-10-10T06:43:12.515Z,5.40
2022-10-10T06:45:42.876Z,3.27
2022-10-10T06:48:12.146Z,2.50
2022-10-10T06:50:40.198Z,2.37
2022-10-10T06:53:08.415Z,5.23
2022-10-10T06:55:36.574Z,4.70
2022-10-10T06:58:04.564Z,2.20
2022-10-10T07:00:33.941Z,5.30
2022-10-10T07:03:01.912Z,4.67
2022-10-10T07:05:29.886Z,1.53
2022-10-10T07:07:58.043Z,9.93
2022-10-10T07:10:26.217Z,2.03
2022-10-10T07:12:54.697Z,1.70
2022-10-10T07:15:22.814Z,2.17
2022-10-10T07:17:58.736Z,5.43
2022-10-10T07:20:27.091Z,6.63
2022-10-10T07:22:55.123Z,9.33
2022-10-10T07:25:23.174Z,3.53
2022-10-10T07:27:51.316Z,5.07
2022-10-10T07:30:21.274Z,2.80
2022-10-10T07:32:51.348Z,6.37
2022-10-10T07:35:19.814Z,4.00
2022-10-10T07:37:47.791Z,6.63
2022-10-10T07:40:16.081Z,12.30
2022-10-10T07:42:44.032Z,6.00
2022-10-10T07:45:12.702Z,7.93
2022-10-10T07:47:40.815Z,11.23
2022-10-10T07:50:12.712Z,9.93
2022-10-10T07:52:41.097Z,10.07
2022-10-10T07:55:10.550Z,8.53
2022-10-10T07:57:38.747Z,13.97
2022-10-10T08:00:10.385Z,8.27
2022-10-10T08:02:40.698Z,4.30
2022-10-10T08:05:19.871Z,6.30
2022-10-10T08:07:48.200Z,12.33
2022-10-10T08:10:17.168Z,4.63
2022-10-10T08:12:45.335Z,3.33
2022-10-10T08:15:14.086Z,5.27
2022-10-10T08:17:42.093Z,3.07
2022-10-10T08:20:11.903Z,4.17
2022-10-10T08:22:39.951Z,5.53
2022-10-10T08:25:09.323Z,5.40
2022-10-10T08:27:37.579Z,4.97
2022-10-10T08:30:06.916Z,6.03
2022-10-10T08:32:34.941Z,3.43
2022-10-10T08:35:03.143Z,7.30
2022-10-10T08:37:37.122Z,4.80
2022-10-10T08:40:07.096Z,4.07
2022-10-10T08:42:46.947Z,6.03
2022-10-10T08:45:21.415Z,5.03
2022-10-10T08:47:52.451Z,6.73
2022-10-10T08:50:25.357Z,6.00
2022-10-10T08:53:00.781Z,5.47
2022-10-10T08:55:33.427Z,4.80
2022-10-10T08:58:11.153Z,6.50
2022-10-10T09:00:44.274Z,3.83
2022-10-10T09:03:21.500Z,6.10
2022-10-10T09:06:17.999Z,7.73
2022-10-10T09:08:57.303Z,4.03
2022-10-10T09:11:44.543Z,3.03
2022-10-10T09:14:27.918Z,3.53
2022-10-10T09:17:04.120Z,3.30
2022-10-10T09:19:43.864Z,5.33
2022-10-10T09:22:17.188Z,3.63
2022-10-10T09:24:52.596Z,2.90
2022-10-10T09:27:26.515Z,6.40
2022-10-10T09:30:02.111Z,3.80
2022-10-10T09:32:35.643Z,4.10
2022-10-10T09:35:16.596Z,7.47
2022-10-10T09:37:48.010Z,3.57
2022-10-10T09:40:25.472Z,3.60
2022-10-10T09:42:53.707Z,4.10
2022-10-10T09:45:28.375Z,3.10
2022-10-10T09:47:57.426Z,3.60
2022-10-10T09:50:25.910Z,7.30
2022-10-10T09:52:54.652Z,6.47
2022-10-10T09:55:28.563Z,5.43
2022-10-10T09:58:00.354Z,5.53
2022-10-10T10:00:35.988Z,4.43
2022-10-10T10:03:16.424Z,2.77
2022-10-10T10:05:48.408Z,3.63
2022-10-10T10:08:28.351Z,3.60
2022-10-10T10:10:59.387Z,4.30
2022-10-10T10:13:31.560Z,6.00
2022-10-10T10:16:07.384Z,5.33
2022-10-10T10:18:43.267Z,4.37
2022-10-10T10:21:18.723Z,3.50
2022-10-10T10:23:54.646Z,4.50
2022-10-10T10:26:28.408Z,4.77
2022-10-10T10:28:58.793Z,6.77
2022-10-10T10:31:49.790Z,5.43
2022-10-10T10:34:39.105Z,7.00
2022-10-10T10:37:19.824Z,6.23
2022-10-10T10:40:25.489Z,9.20
2022-10-10T10:43:33.983Z,4.53
2022-10-10T10:46:18.071Z,4.23
2022-10-10T10:48:48.521Z,3.20
2022-10-10T10:51:47.497Z,3.10
2022-10-10T10:54:39.483Z,2.50
2022-10-10T11:00:26.381Z,4.57
2022-10-10T11:06:23.017Z,3.33
2022-10-10T11:09:02.656Z,2.93
2022-10-10T11:11:47.809Z,5.17
2022-10-10T11:14:38.586Z,2.80
2022-10-10T11:17:16.097Z,2.53
2022-10-10T11:19:48.320Z,5.33
2022-10-10T11:22:21.278Z,3.10
2022-10-10T11:24:55.606Z,4.00
2022-10-10T11:27:31.265Z,3.07
2022-10-10T11:30:08.749Z,4.80
2022-10-10T11:32:49.373Z,3.70
2022-10-10T11:35:31.735Z,5.80
2022-10-10T11:38:07.691Z,4.17
2022-10-10T11:40:49.415Z,7.50
2022-10-10T11:43:29.363Z,11.40
2022-10-10T11:46:06.902Z,3.33
2022-10-10T11:48:46.777Z,2.73
2022-10-10T11:51:28.962Z,3.03
2022-10-10T11:54:01.571Z,10.77
2022-10-10T11:56:34.223Z,9.17
2022-10-10T11:59:12.977Z,3.67
2022-10-10T12:01:48.109Z,3.37
2022-10-10T12:04:17.611Z,5.57
2022-10-10T12:06:51.634Z,6.13
2022-10-10T12:09:25.414Z,7.03
2022-10-10T12:11:58.913Z,5.93
2022-10-10T12:14:31.185Z,6.23
2022-10-10T12:17:00.308Z,5.20
2022-10-10T12:19:30.696Z,4.23
2022-10-10T12:22:02.379Z,5.97
2022-10-10T12:24:32.567Z,3.97
2022-10-10T12:27:44.426Z,10.13
2022-10-10T12:30:28.092Z,7.10
2022-10-10T12:32:56.626Z,3.83
2022-10-10T12:35:48.199Z,5.10
2022-10-10T12:38:24.226Z,4.10
2022-10-10T12:41:15.764Z,5.63
2022-10-10T12:43:52.959Z,3.53
2022-10-10T12:46:34.588Z,4.47
2022-10-10T12:49:21.261Z,5.00
2022-10-10T12:52:12.674Z,5.53
2022-10-10T12:54:45.721Z,15.70
2022-10-10T12:57:26.199Z,11.67
2022-10-10T12:59:57.516Z,3.40
2022-10-10T13:02:29.201Z,9.23
2022-10-10T13:05:01.099Z,5.30
2022-10-10T13:07:31.777Z,4.60
2022-10-10T13:10:08.850Z,5.07
2022-10-10T13:12:36.913Z,5.43
2022-10-10T13:15:20.216Z,12.73
2022-10-10T13:17:48.218Z,2.83
2022-10-10T13:20:34.769Z,12.63
2022-10-10T13:23:14.663Z,4.50
2022-10-10T13:25:46.988Z,5.73
2022-10-10T13:28:19.052Z,3.23
2022-10-10T13:30:48.038Z,10.80
2022-10-10T13:33:19.456Z,11.03
2022-10-10T13:35:48.722Z,11.53
2022-10-10T13:38:24.451Z,5.70
2022-10-10T13:40:53.450Z,17.67
2022-10-10T13:43:21.583Z,8.53
2022-10-10T13:45:57.238Z,8.93
2022-10-10T13:48:40.854Z,5.17
2022-10-10T13:51:15.520Z,6.03
2022-10-10T13:53:54.223Z,9.37
2022-10-10T13:56:28.886Z,6.57
2022-10-10T13:59:06.683Z,6.40
2022-10-10T14:01:39.210Z,12.87
2022-10-10T14:04:21.270Z,6.97
2022-10-10T14:06:58.321Z,6.53
2022-10-10T14:09:32.957Z,6.37
2022-10-10T14:12:04.260Z,3.30
2022-10-10T14:14:41.884Z,5.50
2022-10-10T14:17:11.979Z,5.63
2022-10-10T14:19:40.574Z,9.97
2022-10-10T14:22:08.712Z,6.83
2022-10-10T14:24:38.047Z,8.10
2022-10-10T14:27:13.473Z,9.13
2022-10-10T14:29:41.608Z,9.50
2022-10-10T14:32:11.640Z,4.87
2022-10-10T14:34:40.161Z,3.33
2022-10-10T14:37:13.340Z,5.60
2022-10-10T14:39:42.712Z,6.80
2022-10-10T14:42:14.166Z,5.03
2022-10-10T14:44:42.402Z,4.73
2022-10-10T14:47:17.640Z,6.97
2022-10-10T14:49:45.910Z,11.07
2022-10-10T14:52:14.181Z,8.43
2022-10-10T14:54:43.559Z,12.00
2022-10-10T14:57:13.420Z,8.40
2022-10-10T14:59:46.302Z,5.60
2022-10-10T15:02:19.543Z,6.40
2022-10-10T15:04:47.598Z,4.30
2022-10-10T15:07:16.289Z,12.03
2022-10-10T15:12:37.542Z,7.83
2022-10-10T15:15:08.121Z,12.43
2022-10-10T15:17:36.480Z,9.80
2022-10-10T15:20:07.087Z,16.83
2022-10-10T15:22:35.203Z,5.40
2022-10-10T15:25:04.912Z,13.33
2022-10-10T15:27:33.251Z,15.20
2022-10-10T15:30:01.681Z,13.37
2022-10-10T15:32:29.761Z,6.07
2022-10-10T15:34:57.960Z,5.60
2022-10-10T15:37:30.448Z,16.60
2022-10-10T15:39:58.411Z,6.53
2022-10-10T15:42:28.848Z,10.23
2022-10-10T15:44:56.903Z,16.23
2022-10-10T15:47:25.096Z,13.67
2022-10-10T15:49:53.127Z,8.77
2022-10-10T15:52:23.030Z,8.57
2022-10-10T15:54:51.478Z,8.47
2022-10-10T15:57:20.076Z,10.47
2022-10-10T15:59:49.812Z,4.00
2022-10-10T16:02:19.568Z,2.93
2022-10-10T16:04:47.728Z,8.43
2022-10-10T16:07:34.590Z,9.20
2022-10-10T16:10:05.261Z,12.53
2022-10-10T16:12:33.302Z,11.40
2022-10-10T16:15:06.943Z,6.93
2022-10-10T16:17:35.343Z,21.80
2022-10-10T16:20:04.784Z,5.87
2022-10-10T16:22:33.092Z,16.30
2022-10-10T16:25:21.193Z,14.87
2022-10-10T16:27:49.275Z,7.70
2022-10-10T16:30:19.865Z,4.13
2022-10-10T16:32:48.127Z,5.93
2022-10-10T16:35:16.330Z,10.00
2022-10-10T16:37:44.392Z,4.17
2022-10-10T16:40:13.263Z,6.93
2022-10-10T16:42:41.277Z,10.37
2022-10-10T16:45:11.317Z,12.20
2022-10-10T16:47:40.667Z,9.63
2022-10-10T16:50:09.875Z,4.10
2022-10-10T16:52:38.567Z,5.63
2022-10-10T16:55:08.283Z,10.10
2022-10-10T16:57:36.755Z,14.03
2022-10-10T17:00:06.351Z,9.63
2022-10-10T17:02:34.587Z,7.13
2022-10-10T17:05:05.913Z,11.67
2022-10-10T17:07:35.975Z,6.87
2022-10-10T17:10:04.181Z,6.53
2022-10-10T17:12:32.217Z,6.20
2022-10-10T17:15:01.465Z,10.63
2022-10-10T17:17:29.480Z,6.17
2022-10-10T17:19:57.453Z,5.77
2022-10-10T17:22:26.829Z,15.13
2022-10-10T17:24:54.815Z,14.10
2022-10-10T17:27:22.924Z,10.30
2022-10-10T17:29:53.779Z,8.60
2022-10-10T17:32:22.167Z,4.23
2022-10-10T17:34:50.615Z,8.47
2022-10-10T17:37:18.646Z,16.70
2022-10-10T17:39:48.262Z,10.30
2022-10-10T17:42:16.365Z,10.70
2022-10-10T17:44:50.500Z,8.43
2022-10-10T17:47:21.895Z,4.33
2022-10-10T17:49:49.923Z,11.10
2022-10-10T17:52:21.223Z,9.40
2022-10-10T17:54:50.899Z,10.70
2022-10-10T17:57:20.124Z,7.40
2022-10-10T17:59:48.526Z,10.10
2022-10-10T18:02:18.828Z,7.97
2022-10-10T18:04:47.376Z,8.10
2022-10-10T18:07:16.198Z,6.70
2022-10-10T18:09:44.327Z,6.47
2022-10-10T18:12:13.638Z,9.30
2022-10-10T18:14:44.644Z,15.17
2022-10-10T18:17:16.755Z,12.37
2022-10-10T18:19:45.022Z,15.50
2022-10-10T18:22:13.001Z,26.57
2022-10-10T18:24:41.081Z,14.50
2022-10-10T18:27:09.170Z,26.20
2022-10-10T18:29:39.574Z,11.63
2022-10-10T18:32:08.021Z,18.27
2022-10-10T18:34:36.243Z,14.87
2022-10-10T18:37:04.826Z,12.87
2022-10-10T18:39:33.837Z,11.73
2022-10-10T18:42:01.862Z,19.03
2022-10-10T18:44:30.521Z,17.30
2022-10-10T18:46:59.930Z,10.70
2022-10-10T18:49:28.369Z,13.87
2022-10-10T18:51:58.162Z,23.87
2022-10-10T18:54:27.393Z,31.03
2022-10-10T18:56:55.454Z,7.13
2022-10-10T18:59:23.521Z,13.83
2022-10-10T19:01:54.249Z,6.70
2022-10-10T19:04:24.818Z,11.97
2022-10-10T19:06:56.974Z,10.03
2022-10-10T19:09:25.577Z,6.03
2022-10-10T19:11:53.602Z,10.80
2022-10-10T19:14:22.181Z,17.23
2022-10-10T19:16:50.300Z,7.97
2022-10-10T19:19:20.120Z,6.50
2022-10-10T19:21:51.251Z,8.30
2022-10-10T19:24:21.168Z,12.13
2022-10-10T19:26:56.601Z,9.53
2022-10-10T19:29:26.125Z,15.23
2022-10-10T19:31:54.600Z,15.00
2022-10-10T19:34:23.051Z,7.60
2022-10-10T19:36:53.471Z,9.40
2022-10-10T19:39:23.856Z,12.40
2022-10-10T19:41:51.853Z,18.77
2022-10-10T19:44:19.809Z,25.80
2022-10-10T19:46:47.807Z,10.40
2022-10-10T19:49:16.064Z,16.00
2022-10-10T19:51:44.220Z,19.23
2022-10-10T19:54:13.533Z,15.43
2022-10-10T19:56:41.512Z,18.47
2022-10-10T19:59:09.631Z,13.30
2022-10-10T20:01:37.899Z,8.70
2022-10-10T20:04:06.094Z,11.67
2022-10-10T20:06:35.535Z,15.10
2022-10-10T20:09:07.097Z,12.40
2022-10-10T20:11:39.674Z,19.07
2022-10-10T20:14:08.145Z,14.50
2022-10-10T20:16:36.161Z,23.53
2022-10-10T20:19:04.601Z,12.77
2022-10-10T20:21:35.073Z,23.10
2022-10-10T20:24:06.885Z,11.93
2022-10-10T20:26:36.113Z,17.07
2022-10-10T20:29:07.016Z,13.33
2022-10-10T20:31:37.591Z,21.20
2022-10-10T20:34:07.401Z,14.40
2022-10-10T20:36:36.485Z,15.30
2022-10-10T20:39:08.953Z,23.43
2022-10-10T20:41:38.952Z,23.77
2022-10-10T20:44:12.090Z,15.00
2022-10-10T20:46:43.253Z,14.50
2022-10-10T20:49:15.769Z,13.33
2022-10-10T20:51:48.227Z,11.70
2022-10-10T20:54:18.650Z,22.07
2022-10-10T20:56:49.043Z,11.37
2022-10-10T20:59:19.084Z,16.33
2022-10-10T21:01:47.350Z,18.93
2022-10-10T21:04:15.581Z,21.23
2022-10-10T21:06:43.917Z,9.67
2022-10-10T21:09:14.754Z,12.67
2022-10-10T21:11:44.095Z,7.30
2022-10-10T21:14:16.298Z,10.13
2022-10-10T21:16:46.227Z,8.60
2022-10-10T21:19:16.347Z,20.53
2022-10-10T21:21:45.280Z,16.67
2022-10-10T21:24:15.207Z,15.13
2022-10-10T21:26:45.577Z,13.40
2022-10-10T21:29:13.747Z,11.83
2022-10-10T21:31:42.398Z,9.00
2022-10-10T21:34:16.849Z,13.60
2022-10-10T21:36:44.935Z,14.90
2022-10-10T21:39:13.878Z,6.63
2022-10-10T21:41:42.356Z,11.07
2022-10-10T21:44:11.558Z,10.80
2022-10-10T21:46:39.814Z,15.60
2022-10-10T21:49:11.991Z,16.97
2022-10-10T21:51:45.276Z,17.03
2022-10-10T21:54:14.510Z,13.67
2022-10-10T21:56:42.474Z,16.43
2022-10-10T21:59:12.367Z,18.33
2022-10-10T22:01:40.648Z,19.33
2022-10-10T22:04:08.639Z,21.43
2022-10-10T22:06:39.288Z,25.13
2022-10-10T22:09:07.440Z,20.73
2022-10-10T22:11:36.202Z,20.83
2022-10-10T22:14:06.197Z,24.57
2022-10-10T22:16:37.118Z,17.67
2022-10-10T22:19:05.778Z,25.40
2022-10-10T22:21:34.887Z,17.73
2022-10-10T22:24:08.182Z,29.53
2022-10-10T22:26:36.539Z,21.70
2022-10-10T22:29:05.669Z,24.43
2022-10-10T22:31:35.484Z,20.83
2022-10-10T22:34:03.827Z,19.07
2022-10-10T22:36:31.967Z,21.80
2022-10-10T22:39:00.252Z,22.93
2022-10-10T22:41:29.546Z,30.23
2022-10-10T22:43:57.504Z,22.90
2022-10-10T22:46:26.265Z,23.00
2022-10-10T22:48:54.254Z,23.03
2022-10-10T22:51:22.337Z,20.60
2022-10-10T22:53:50.547Z,17.07
2022-10-10T22:56:21.567Z,30.33
2022-10-10T22:58:52.358Z,33.30
2022-10-10T23:01:23.904Z,31.43
2022-10-10T23:03:55.580Z,26.93
2022-10-10T23:06:23.795Z,22.23
2022-10-10T23:08:52.060Z,21.53
2022-10-10T23:11:20.113Z,25.43
2022-10-10T23:13:48.111Z,23.07
2022-10-10T23:16:17.434Z,21.53
2022-10-10T23:18:45.823Z,23.17
2022-10-10T23:21:13.835Z,22.30
2022-10-10T23:23:41.962Z,17.70
2022-10-10T23:26:10.992Z,29.50
2022-10-10T23:28:39.809Z,31.93
2022-10-10T23:31:10.518Z,20.87
2022-10-10T23:33:40.388Z,27.70
2022-10-10T23:36:12.338Z,17.40
2022-10-10T23:38:41.215Z,23.70
2022-10-10T23:41:13.021Z,27.73
2022-10-10T23:43:41.369Z,17.77
2022-10-10T23:46:09.602Z,17.43
2022-10-10T23:48:39.229Z,19.37
2022-10-10T23:51:07.923Z,23.37
2022-10-10T23:53:36.499Z,42.53
2022-10-10T23:56:05.748Z,26.00
2022-10-10T23:58:33.986Z,15.90
